Falcon Heights, Texas
Current Conditions -  °F | °C
As of 6:55 AM on Friday 19 Dec 2014 (Local Time) from KAPY Reporting Station
Haze Haze  
Wind Chill: 61°   Ceiling: 300
Heat Index: 61°   Visibility: 0.75mi
Dew Point: 61°   Wind: 7mph
Humidity: 100%   Direction: 310°NW
Pressure: 29.99"   Gusts: NA
Location:  26.56°N, 99.12°W
Report Text: KAPY 191255Z AUTO 31006KT 3/4SM BR OVC003 16/16 A2999 RMK AO2 T01610161
Loading
Personal Weather Stations






























Interactive Weather Map New forecast layout! Learn more

10-Day Weather Forecast

Advertisements
Track Severe Weather on mobile